sensor_id;sensor_type;location;lat;lon;timestamp;P1;durP1;ratioP1;P2;durP2;ratioP2
73557;SDS011;61829;53.286;10.434;2024-03-07T00:03:03;32.58;;;14.73;;
73557;SDS011;61829;53.286;10.434;2024-03-07T00:05:49;37.53;;;16.08;;
73557;SDS011;61829;53.286;10.434;2024-03-07T00:08:34;39.78;;;16.35;;
73557;SDS011;61829;53.286;10.434;2024-03-07T00:11:18;40.03;;;15.02;;
73557;SDS011;61829;53.286;10.434;2024-03-07T00:14:03;35.58;;;15.80;;
73557;SDS011;61829;53.286;10.434;2024-03-07T00:16:48;37.50;;;16.35;;
73557;SDS011;61829;53.286;10.434;2024-03-07T00:19:33;37.65;;;15.93;;
73557;SDS011;61829;53.286;10.434;2024-03-07T00:22:17;38.15;;;16.20;;
73557;SDS011;61829;53.286;10.434;2024-03-07T00:25:02;34.25;;;14.73;;
73557;SDS011;61829;53.286;10.434;2024-03-07T00:27:50;38.88;;;16.35;;
73557;SDS011;61829;53.286;10.434;2024-03-07T00:30:37;44.03;;;17.05;;
73557;SDS011;61829;53.286;10.434;2024-03-07T00:33:21;45.47;;;16.55;;
73557;SDS011;61829;53.286;10.434;2024-03-07T00:36:06;50.65;;;18.05;;
73557;SDS011;61829;53.286;10.434;2024-03-07T00:38:51;47.03;;;15.70;;
73557;SDS011;61829;53.286;10.434;2024-03-07T00:41:36;46.83;;;17.95;;
73557;SDS011;61829;53.286;10.434;2024-03-07T00:45:05;39.70;;;15.80;;
73557;SDS011;61829;53.286;10.434;2024-03-07T00:47:50;44.80;;;17.45;;
73557;SDS011;61829;53.286;10.434;2024-03-07T00:50:35;42.25;;;16.38;;
73557;SDS011;61829;53.286;10.434;2024-03-07T00:53:20;41.38;;;17.23;;
73557;SDS011;61829;53.286;10.434;2024-03-07T00:56:04;44.17;;;17.90;;
73557;SDS011;61829;53.286;10.434;2024-03-07T00:58:50;51.03;;;17.67;;
73557;SDS011;61829;53.286;10.434;2024-03-07T01:01:34;45.83;;;17.30;;
73557;SDS011;61829;53.286;10.434;2024-03-07T01:04:22;40.95;;;17.15;;
73557;SDS011;61829;53.286;10.434;2024-03-07T01:07:06;39.80;;;17.05;;
73557;SDS011;61829;53.286;10.434;2024-03-07T01:09:51;38.35;;;16.58;;
73557;SDS011;61829;53.286;10.434;2024-03-07T01:12:36;36.60;;;15.57;;
73557;SDS011;61829;53.286;10.434;2024-03-07T01:15:20;33.58;;;15.80;;
73557;SDS011;61829;53.286;10.434;2024-03-07T01:18:05;34.80;;;14.65;;
73557;SDS011;61829;53.286;10.434;2024-03-07T01:20:56;35.20;;;15.68;;
73557;SDS011;61829;53.286;10.434;2024-03-07T01:23:40;39.90;;;16.45;;
73557;SDS011;61829;53.286;10.434;2024-03-07T01:26:26;42.28;;;16.75;;
73557;SDS011;61829;53.286;10.434;2024-03-07T01:29:11;34.50;;;15.35;;
73557;SDS011;61829;53.286;10.434;2024-03-07T01:31:57;39.92;;;15.93;;
73557;SDS011;61829;53.286;10.434;2024-03-07T01:34:42;43.10;;;17.73;;
73557;SDS011;61829;53.286;10.434;2024-03-07T01:37:26;43.65;;;16.25;;
73557;SDS011;61829;53.286;10.434;2024-03-07T01:40:11;35.40;;;15.38;;
73557;SDS011;61829;53.286;10.434;2024-03-07T01:42:56;37.40;;;15.27;;
73557;SDS011;61829;53.286;10.434;2024-03-07T01:45:40;39.75;;;16.55;;
73557;SDS011;61829;53.286;10.434;2024-03-07T01:48:26;35.03;;;14.43;;
73557;SDS011;61829;53.286;10.434;2024-03-07T01:51:15;33.80;;;14.52;;
73557;SDS011;61829;53.286;10.434;2024-03-07T01:54:00;33.30;;;15.63;;
73557;SDS011;61829;53.286;10.434;2024-03-07T01:56:46;32.53;;;14.75;;
73557;SDS011;61829;53.286;10.434;2024-03-07T01:59:31;39.38;;;17.08;;
73557;SDS011;61829;53.286;10.434;2024-03-07T02:02:16;37.58;;;15.55;;
73557;SDS011;61829;53.286;10.434;2024-03-07T02:05:04;39.17;;;15.60;;
73557;SDS011;61829;53.286;10.434;2024-03-07T02:07:50;33.50;;;15.00;;
73557;SDS011;61829;53.286;10.434;2024-03-07T02:10:35;36.88;;;15.77;;
73557;SDS011;61829;53.286;10.434;2024-03-07T02:13:19;38.28;;;15.45;;
73557;SDS011;61829;53.286;10.434;2024-03-07T02:16:04;37.08;;;14.10;;
73557;SDS011;61829;53.286;10.434;2024-03-07T02:18:49;41.75;;;14.95;;
73557;SDS011;61829;53.286;10.434;2024-03-07T02:21:34;37.05;;;15.38;;
73557;SDS011;61829;53.286;10.434;2024-03-07T02:24:19;41.22;;;14.88;;
73557;SDS011;61829;53.286;10.434;2024-03-07T02:27:06;37.38;;;14.30;;
73557;SDS011;61829;53.286;10.434;2024-03-07T02:29:52;35.25;;;14.32;;
73557;SDS011;61829;53.286;10.434;2024-03-07T02:32:38;35.42;;;13.38;;
73557;SDS011;61829;53.286;10.434;2024-03-07T02:35:23;40.22;;;14.43;;
73557;SDS011;61829;53.286;10.434;2024-03-07T02:38:08;39.03;;;15.40;;
73557;SDS011;61829;53.286;10.434;2024-03-07T02:40:52;41.33;;;14.95;;
73557;SDS011;61829;53.286;10.434;2024-03-07T02:43:37;49.13;;;20.98;;
73557;SDS011;61829;53.286;10.434;2024-03-07T02:46:23;43.35;;;15.82;;
73557;SDS011;61829;53.286;10.434;2024-03-07T02:49:07;46.80;;;16.63;;
73557;SDS011;61829;53.286;10.434;2024-03-07T02:54:37;35.03;;;13.15;;
73557;SDS011;61829;53.286;10.434;2024-03-07T02:57:22;33.25;;;13.48;;
73557;SDS011;61829;53.286;10.434;2024-03-07T03:00:06;33.03;;;13.50;;
73557;SDS011;61829;53.286;10.434;2024-03-07T03:03:03;33.63;;;13.70;;
73557;SDS011;61829;53.286;10.434;2024-03-07T03:05:48;33.63;;;11.95;;
73557;SDS011;61829;53.286;10.434;2024-03-07T03:08:33;34.97;;;13.40;;
73557;SDS011;61829;53.286;10.434;2024-03-07T03:11:19;32.67;;;12.48;;
73557;SDS011;61829;53.286;10.434;2024-03-07T03:14:04;34.88;;;13.60;;
73557;SDS011;61829;53.286;10.434;2024-03-07T03:16:49;38.70;;;14.70;;
73557;SDS011;61829;53.286;10.434;2024-03-07T03:19:33;32.17;;;13.63;;
73557;SDS011;61829;53.286;10.434;2024-03-07T03:22:18;32.25;;;11.73;;
73557;SDS011;61829;53.286;10.434;2024-03-07T03:25:04;29.05;;;12.35;;
73557;SDS011;61829;53.286;10.434;2024-03-07T03:27:51;35.17;;;14.00;;
73557;SDS011;61829;53.286;10.434;2024-03-07T03:30:40;32.95;;;12.70;;
73557;SDS011;61829;53.286;10.434;2024-03-07T03:33:25;30.38;;;12.23;;
73557;SDS011;61829;53.286;10.434;2024-03-07T03:36:09;33.75;;;12.52;;
73557;SDS011;61829;53.286;10.434;2024-03-07T03:38:56;34.45;;;11.90;;
73557;SDS011;61829;53.286;10.434;2024-03-07T03:41:41;26.15;;;11.00;;
73557;SDS011;61829;53.286;10.434;2024-03-07T03:44:25;27.55;;;11.32;;
73557;SDS011;61829;53.286;10.434;2024-03-07T03:47:10;34.25;;;11.43;;
73557;SDS011;61829;53.286;10.434;2024-03-07T03:49:55;26.60;;;10.15;;
73557;SDS011;61829;53.286;10.434;2024-03-07T03:52:41;18.02;;;8.98;;
73557;SDS011;61829;53.286;10.434;2024-03-07T03:55:27;21.30;;;9.40;;
73557;SDS011;61829;53.286;10.434;2024-03-07T03:58:11;21.48;;;9.32;;
73557;SDS011;61829;53.286;10.434;2024-03-07T04:00:56;22.20;;;10.00;;
73557;SDS011;61829;53.286;10.434;2024-03-07T04:03:42;20.42;;;9.32;;
73557;SDS011;61829;53.286;10.434;2024-03-07T04:06:26;18.95;;;8.93;;
73557;SDS011;61829;53.286;10.434;2024-03-07T04:09:11;18.30;;;8.23;;
73557;SDS011;61829;53.286;10.434;2024-03-07T04:11:56;21.20;;;8.70;;
73557;SDS011;61829;53.286;10.434;2024-03-07T04:17:27;18.17;;;7.72;;
73557;SDS011;61829;53.286;10.434;2024-03-07T04:20:11;18.65;;;7.45;;
73557;SDS011;61829;53.286;10.434;2024-03-07T04:23:00;16.40;;;8.02;;
73557;SDS011;61829;53.286;10.434;2024-03-07T04:25:47;23.08;;;8.68;;
73557;SDS011;61829;53.286;10.434;2024-03-07T04:28:32;21.05;;;8.48;;
73557;SDS011;61829;53.286;10.434;2024-03-07T04:31:16;17.98;;;7.95;;
73557;SDS011;61829;53.286;10.434;2024-03-07T04:34:00;12.93;;;7.10;;
73557;SDS011;61829;53.286;10.434;2024-03-07T04:36:48;17.98;;;8.48;;
73557;SDS011;61829;53.286;10.434;2024-03-07T04:39:32;16.08;;;7.45;;
73557;SDS011;61829;53.286;10.434;2024-03-07T04:42:16;16.85;;;6.18;;
73557;SDS011;61829;53.286;10.434;2024-03-07T04:45:01;17.30;;;7.95;;
73557;SDS011;61829;53.286;10.434;2024-03-07T04:47:46;13.57;;;7.35;;
73557;SDS011;61829;53.286;10.434;2024-03-07T04:50:31;20.77;;;8.82;;
73557;SDS011;61829;53.286;10.434;2024-03-07T04:53:17;16.05;;;7.88;;
73557;SDS011;61829;53.286;10.434;2024-03-07T04:56:02;18.65;;;8.77;;
73557;SDS011;61829;53.286;10.434;2024-03-07T04:58:47;17.17;;;8.05;;
73557;SDS011;61829;53.286;10.434;2024-03-07T05:01:34;17.15;;;8.25;;
73557;SDS011;61829;53.286;10.434;2024-03-07T05:04:19;14.30;;;6.65;;
73557;SDS011;61829;53.286;10.434;2024-03-07T05:07:03;18.45;;;8.68;;
73557;SDS011;61829;53.286;10.434;2024-03-07T05:09:48;19.20;;;8.55;;
73557;SDS011;61829;53.286;10.434;2024-03-07T05:12:33;17.30;;;9.10;;
73557;SDS011;61829;53.286;10.434;2024-03-07T05:15:18;15.43;;;7.35;;
73557;SDS011;61829;53.286;10.434;2024-03-07T05:18:12;16.75;;;8.40;;
73557;SDS011;61829;53.286;10.434;2024-03-07T05:20:57;17.15;;;7.57;;
73557;SDS011;61829;53.286;10.434;2024-03-07T05:24:02;19.02;;;8.57;;
73557;SDS011;61829;53.286;10.434;2024-03-07T05:26:52;13.52;;;7.32;;
73557;SDS011;61829;53.286;10.434;2024-03-07T05:36:03;18.13;;;7.75;;
73557;SDS011;61829;53.286;10.434;2024-03-07T05:38:57;13.82;;;7.00;;
73557;SDS011;61829;53.286;10.434;2024-03-07T05:41:45;19.90;;;9.30;;
73557;SDS011;61829;53.286;10.434;2024-03-07T05:44:29;19.20;;;8.40;;
73557;SDS011;61829;53.286;10.434;2024-03-07T05:47:14;18.08;;;8.57;;
73557;SDS011;61829;53.286;10.434;2024-03-07T05:50:14;20.17;;;8.20;;
73557;SDS011;61829;53.286;10.434;2024-03-07T05:52:58;16.85;;;8.55;;
73557;SDS011;61829;53.286;10.434;2024-03-07T05:55:43;16.20;;;7.63;;
73557;SDS011;61829;53.286;10.434;2024-03-07T05:58:28;12.77;;;6.38;;
73557;SDS011;61829;53.286;10.434;2024-03-07T06:01:12;21.95;;;9.55;;
73557;SDS011;61829;53.286;10.434;2024-03-07T06:03:57;19.25;;;9.40;;
73557;SDS011;61829;53.286;10.434;2024-03-07T06:06:41;17.23;;;8.75;;
73557;SDS011;61829;53.286;10.434;2024-03-07T06:09:26;19.40;;;8.40;;
73557;SDS011;61829;53.286;10.434;2024-03-07T06:12:10;17.60;;;8.02;;
73557;SDS011;61829;53.286;10.434;2024-03-07T06:14:55;17.77;;;7.93;;
73557;SDS011;61829;53.286;10.434;2024-03-07T06:17:41;21.13;;;8.88;;
73557;SDS011;61829;53.286;10.434;2024-03-07T06:20:29;19.67;;;8.43;;
73557;SDS011;61829;53.286;10.434;2024-03-07T06:23:13;24.67;;;9.25;;
73557;SDS011;61829;53.286;10.434;2024-03-07T06:26:00;18.00;;;8.68;;
73557;SDS011;61829;53.286;10.434;2024-03-07T06:28:45;15.13;;;7.13;;
73557;SDS011;61829;53.286;10.434;2024-03-07T06:31:30;17.08;;;8.07;;
73557;SDS011;61829;53.286;10.434;2024-03-07T06:34:15;18.60;;;8.27;;
73557;SDS011;61829;53.286;10.434;2024-03-07T06:37:01;17.23;;;7.53;;
73557;SDS011;61829;53.286;10.434;2024-03-07T06:39:46;9.95;;;4.32;;
73557;SDS011;61829;53.286;10.434;2024-03-07T06:42:32;15.07;;;6.07;;
73557;SDS011;61829;53.286;10.434;2024-03-07T06:45:16;16.10;;;8.40;;
73557;SDS011;61829;53.286;10.434;2024-03-07T06:48:06;19.13;;;8.32;;
73557;SDS011;61829;53.286;10.434;2024-03-07T06:50:54;11.15;;;6.00;;
73557;SDS011;61829;53.286;10.434;2024-03-07T06:53:39;13.60;;;5.90;;
73557;SDS011;61829;53.286;10.434;2024-03-07T06:56:23;16.00;;;6.43;;
73557;SDS011;61829;53.286;10.434;2024-03-07T06:59:11;13.30;;;7.75;;
73557;SDS011;61829;53.286;10.434;2024-03-07T07:01:57;16.60;;;8.15;;
73557;SDS011;61829;53.286;10.434;2024-03-07T07:07:29;12.80;;;6.15;;
73557;SDS011;61829;53.286;10.434;2024-03-07T07:10:13;14.63;;;6.43;;
73557;SDS011;61829;53.286;10.434;2024-03-07T07:13:18;14.88;;;7.55;;
73557;SDS011;61829;53.286;10.434;2024-03-07T07:16:03;16.45;;;7.38;;
73557;SDS011;61829;53.286;10.434;2024-03-07T07:18:48;13.82;;;6.53;;
73557;SDS011;61829;53.286;10.434;2024-03-07T07:21:32;13.75;;;6.05;;
73557;SDS011;61829;53.286;10.434;2024-03-07T07:24:17;13.05;;;6.35;;
73557;SDS011;61829;53.286;10.434;2024-03-07T07:27:03;18.10;;;7.65;;
73557;SDS011;61829;53.286;10.434;2024-03-07T07:29:47;18.75;;;6.95;;
73557;SDS011;61829;53.286;10.434;2024-03-07T07:32:32;15.70;;;7.70;;
73557;SDS011;61829;53.286;10.434;2024-03-07T07:35:16;10.32;;;5.85;;
73557;SDS011;61829;53.286;10.434;2024-03-07T07:38:02;11.70;;;5.05;;
73557;SDS011;61829;53.286;10.434;2024-03-07T07:40:47;12.52;;;6.47;;
73557;SDS011;61829;53.286;10.434;2024-03-07T07:43:31;12.15;;;6.47;;
73557;SDS011;61829;53.286;10.434;2024-03-07T07:46:16;11.73;;;6.40;;
73557;SDS011;61829;53.286;10.434;2024-03-07T07:49:02;11.45;;;6.45;;
73557;SDS011;61829;53.286;10.434;2024-03-07T07:51:46;9.65;;;4.32;;
73557;SDS011;61829;53.286;10.434;2024-03-07T07:54:32;15.05;;;6.93;;
73557;SDS011;61829;53.286;10.434;2024-03-07T07:57:17;11.00;;;5.97;;
73557;SDS011;61829;53.286;10.434;2024-03-07T08:00:02;13.82;;;7.75;;
73557;SDS011;61829;53.286;10.434;2024-03-07T08:02:50;11.40;;;6.30;;
73557;SDS011;61829;53.286;10.434;2024-03-07T08:05:39;19.73;;;7.80;;
73557;SDS011;61829;53.286;10.434;2024-03-07T08:08:23;14.15;;;6.97;;
73557;SDS011;61829;53.286;10.434;2024-03-07T08:11:07;15.20;;;7.43;;
73557;SDS011;61829;53.286;10.434;2024-03-07T08:13:53;14.65;;;6.38;;
73557;SDS011;61829;53.286;10.434;2024-03-07T08:19:22;14.57;;;7.07;;
73557;SDS011;61829;53.286;10.434;2024-03-07T08:22:08;11.82;;;6.45;;
73557;SDS011;61829;53.286;10.434;2024-03-07T08:24:54;18.42;;;7.28;;
73557;SDS011;61829;53.286;10.434;2024-03-07T08:27:39;13.07;;;6.32;;
73557;SDS011;61829;53.286;10.434;2024-03-07T08:30:25;14.20;;;7.13;;
73557;SDS011;61829;53.286;10.434;2024-03-07T08:33:13;13.30;;;5.25;;
73557;SDS011;61829;53.286;10.434;2024-03-07T08:35:57;15.38;;;7.30;;
73557;SDS011;61829;53.286;10.434;2024-03-07T08:38:42;15.43;;;6.65;;
73557;SDS011;61829;53.286;10.434;2024-03-07T08:41:30;14.48;;;6.53;;
73557;SDS011;61829;53.286;10.434;2024-03-07T08:44:15;13.82;;;6.93;;
73557;SDS011;61829;53.286;10.434;2024-03-07T08:46:59;15.07;;;6.68;;
73557;SDS011;61829;53.286;10.434;2024-03-07T08:49:44;14.77;;;7.25;;
73557;SDS011;61829;53.286;10.434;2024-03-07T08:52:28;15.18;;;7.57;;
73557;SDS011;61829;53.286;10.434;2024-03-07T08:55:14;12.18;;;6.57;;
73557;SDS011;61829;53.286;10.434;2024-03-07T08:58:00;14.07;;;7.05;;
73557;SDS011;61829;53.286;10.434;2024-03-07T09:00:45;13.95;;;5.75;;
73557;SDS011;61829;53.286;10.434;2024-03-07T09:03:29;13.93;;;7.53;;
73557;SDS011;61829;53.286;10.434;2024-03-07T09:06:14;12.13;;;5.97;;
73557;SDS011;61829;53.286;10.434;2024-03-07T09:09:00;15.13;;;6.97;;
73557;SDS011;61829;53.286;10.434;2024-03-07T09:11:45;12.88;;;6.20;;
73557;SDS011;61829;53.286;10.434;2024-03-07T09:14:29;15.27;;;7.90;;
73557;SDS011;61829;53.286;10.434;2024-03-07T09:17:15;17.00;;;7.65;;
73557;SDS011;61829;53.286;10.434;2024-03-07T09:20:00;13.75;;;7.38;;
73557;SDS011;61829;53.286;10.434;2024-03-07T09:22:45;16.20;;;7.82;;
73557;SDS011;61829;53.286;10.434;2024-03-07T09:25:35;17.27;;;8.48;;
73557;SDS011;61829;53.286;10.434;2024-03-07T09:28:21;13.70;;;7.50;;
73557;SDS011;61829;53.286;10.434;2024-03-07T09:31:06;17.30;;;7.75;;
73557;SDS011;61829;53.286;10.434;2024-03-07T09:33:50;17.02;;;8.23;;
73557;SDS011;61829;53.286;10.434;2024-03-07T09:36:35;14.70;;;7.00;;
73557;SDS011;61829;53.286;10.434;2024-03-07T09:39:19;18.63;;;8.35;;
73557;SDS011;61829;53.286;10.434;2024-03-07T09:42:05;22.88;;;9.15;;
73557;SDS011;61829;53.286;10.434;2024-03-07T09:44:54;17.75;;;8.85;;
73557;SDS011;61829;53.286;10.434;2024-03-07T09:47:40;18.45;;;7.97;;
73557;SDS011;61829;53.286;10.434;2024-03-07T09:50:26;16.52;;;7.85;;
73557;SDS011;61829;53.286;10.434;2024-03-07T09:53:14;18.90;;;8.75;;
73557;SDS011;61829;53.286;10.434;2024-03-07T09:56:00;14.52;;;7.18;;
73557;SDS011;61829;53.286;10.434;2024-03-07T09:58:46;17.88;;;8.70;;
73557;SDS011;61829;53.286;10.434;2024-03-07T10:01:34;15.55;;;6.82;;
73557;SDS011;61829;53.286;10.434;2024-03-07T10:04:24;20.15;;;9.38;;
73557;SDS011;61829;53.286;10.434;2024-03-07T10:07:22;17.67;;;8.52;;
73557;SDS011;61829;53.286;10.434;2024-03-07T10:10:07;16.88;;;8.50;;
73557;SDS011;61829;53.286;10.434;2024-03-07T10:12:56;17.60;;;7.45;;
73557;SDS011;61829;53.286;10.434;2024-03-07T10:15:44;17.88;;;8.25;;
73557;SDS011;61829;53.286;10.434;2024-03-07T10:19:04;17.08;;;8.43;;
73557;SDS011;61829;53.286;10.434;2024-03-07T10:21:43;20.88;;;8.07;;
73557;SDS011;61829;53.286;10.434;2024-03-07T10:24:27;21.17;;;9.00;;
73557;SDS011;61829;53.286;10.434;2024-03-07T10:27:11;15.18;;;8.15;;
73557;SDS011;61829;53.286;10.434;2024-03-07T10:29:56;18.67;;;7.78;;
73557;SDS011;61829;53.286;10.434;2024-03-07T10:32:41;17.73;;;8.13;;
73557;SDS011;61829;53.286;10.434;2024-03-07T10:35:25;18.45;;;8.68;;
73557;SDS011;61829;53.286;10.434;2024-03-07T10:38:10;16.95;;;7.60;;
73557;SDS011;61829;53.286;10.434;2024-03-07T10:40:56;14.30;;;7.78;;
73557;SDS011;61829;53.286;10.434;2024-03-07T10:43:42;18.38;;;9.45;;
73557;SDS011;61829;53.286;10.434;2024-03-07T10:46:30;17.58;;;7.75;;
73557;SDS011;61829;53.286;10.434;2024-03-07T10:49:16;18.80;;;8.57;;
73557;SDS011;61829;53.286;10.434;2024-03-07T11:01:43;13.40;;;7.18;;
73557;SDS011;61829;53.286;10.434;2024-03-07T11:04:35;18.98;;;9.05;;
73557;SDS011;61829;53.286;10.434;2024-03-07T11:07:20;16.77;;;8.48;;
73557;SDS011;61829;53.286;10.434;2024-03-07T11:10:07;18.08;;;8.48;;
73557;SDS011;61829;53.286;10.434;2024-03-07T11:13:03;19.08;;;9.25;;
73557;SDS011;61829;53.286;10.434;2024-03-07T11:15:57;18.08;;;8.30;;
73557;SDS011;61829;53.286;10.434;2024-03-07T11:19:17;19.27;;;8.75;;
73557;SDS011;61829;53.286;10.434;2024-03-07T11:22:05;20.05;;;9.07;;
73557;SDS011;61829;53.286;10.434;2024-03-07T11:25:02;16.38;;;8.65;;
73557;SDS011;61829;53.286;10.434;2024-03-07T11:27:56;19.30;;;8.98;;
73557;SDS011;61829;53.286;10.434;2024-03-07T11:30:41;17.00;;;8.85;;
73557;SDS011;61829;53.286;10.434;2024-03-07T11:33:26;21.25;;;9.23;;
73557;SDS011;61829;53.286;10.434;2024-03-07T11:36:10;19.20;;;9.48;;
73557;SDS011;61829;53.286;10.434;2024-03-07T11:38:58;17.67;;;8.20;;
73557;SDS011;61829;53.286;10.434;2024-03-07T11:41:42;19.98;;;8.88;;
73557;SDS011;61829;53.286;10.434;2024-03-07T11:44:27;20.50;;;9.18;;
73557;SDS011;61829;53.286;10.434;2024-03-07T11:47:15;18.23;;;8.52;;
73557;SDS011;61829;53.286;10.434;2024-03-07T11:50:01;20.00;;;9.82;;
73557;SDS011;61829;53.286;10.434;2024-03-07T11:52:46;20.52;;;8.52;;
73557;SDS011;61829;53.286;10.434;2024-03-07T11:58:27;17.95;;;8.27;;
73557;SDS011;61829;53.286;10.434;2024-03-07T12:01:16;18.02;;;8.43;;
73557;SDS011;61829;53.286;10.434;2024-03-07T12:04:01;21.35;;;9.35;;
73557;SDS011;61829;53.286;10.434;2024-03-07T12:06:51;21.58;;;10.73;;
73557;SDS011;61829;53.286;10.434;2024-03-07T12:09:36;21.73;;;9.88;;
73557;SDS011;61829;53.286;10.434;2024-03-07T12:12:22;16.83;;;9.05;;
73557;SDS011;61829;53.286;10.434;2024-03-07T12:15:08;19.65;;;9.35;;
73557;SDS011;61829;53.286;10.434;2024-03-07T12:18:05;18.92;;;8.70;;
73557;SDS011;61829;53.286;10.434;2024-03-07T12:20:53;20.52;;;8.75;;
73557;SDS011;61829;53.286;10.434;2024-03-07T12:23:39;17.35;;;8.88;;
73557;SDS011;61829;53.286;10.434;2024-03-07T12:26:24;14.27;;;7.03;;
73557;SDS011;61829;53.286;10.434;2024-03-07T12:29:10;20.33;;;8.63;;
73557;SDS011;61829;53.286;10.434;2024-03-07T12:31:55;18.42;;;8.18;;
73557;SDS011;61829;53.286;10.434;2024-03-07T12:34:42;15.48;;;8.65;;
73557;SDS011;61829;53.286;10.434;2024-03-07T12:37:34;17.45;;;9.00;;
73557;SDS011;61829;53.286;10.434;2024-03-07T12:40:20;14.02;;;7.75;;
73557;SDS011;61829;53.286;10.434;2024-03-07T12:43:19;20.08;;;10.07;;
73557;SDS011;61829;53.286;10.434;2024-03-07T12:46:05;21.67;;;10.00;;
73557;SDS011;61829;53.286;10.434;2024-03-07T12:48:50;18.23;;;8.65;;
73557;SDS011;61829;53.286;10.434;2024-03-07T12:51:35;20.73;;;9.85;;
73557;SDS011;61829;53.286;10.434;2024-03-07T12:54:20;18.27;;;8.48;;
73557;SDS011;61829;53.286;10.434;2024-03-07T12:57:07;20.95;;;9.75;;
73557;SDS011;61829;53.286;10.434;2024-03-07T12:59:52;21.02;;;9.43;;
73557;SDS011;61829;53.286;10.434;2024-03-07T13:02:37;19.02;;;9.82;;
73557;SDS011;61829;53.286;10.434;2024-03-07T13:05:21;16.85;;;8.65;;
73557;SDS011;61829;53.286;10.434;2024-03-07T13:08:06;19.20;;;9.55;;
73557;SDS011;61829;53.286;10.434;2024-03-07T13:10:57;21.35;;;8.68;;
73557;SDS011;61829;53.286;10.434;2024-03-07T13:13:43;17.45;;;8.57;;
73557;SDS011;61829;53.286;10.434;2024-03-07T13:16:27;16.40;;;7.88;;
73557;SDS011;61829;53.286;10.434;2024-03-07T13:19:12;17.42;;;9.40;;
73557;SDS011;61829;53.286;10.434;2024-03-07T13:21:58;16.30;;;9.20;;
73557;SDS011;61829;53.286;10.434;2024-03-07T13:24:43;16.52;;;7.38;;
73557;SDS011;61829;53.286;10.434;2024-03-07T13:27:29;23.67;;;9.30;;
73557;SDS011;61829;53.286;10.434;2024-03-07T13:30:14;15.75;;;9.23;;
73557;SDS011;61829;53.286;10.434;2024-03-07T13:33:06;19.25;;;9.35;;
73557;SDS011;61829;53.286;10.434;2024-03-07T13:35:52;17.90;;;8.90;;
73557;SDS011;61829;53.286;10.434;2024-03-07T13:38:36;16.67;;;8.68;;
73557;SDS011;61829;53.286;10.434;2024-03-07T13:41:22;18.98;;;8.75;;
73557;SDS011;61829;53.286;10.434;2024-03-07T13:44:07;19.45;;;9.63;;
73557;SDS011;61829;53.286;10.434;2024-03-07T13:46:52;16.23;;;9.55;;
73557;SDS011;61829;53.286;10.434;2024-03-07T13:49:38;19.95;;;9.82;;
73557;SDS011;61829;53.286;10.434;2024-03-07T13:52:23;17.98;;;9.18;;
73557;SDS011;61829;53.286;10.434;2024-03-07T13:55:11;14.80;;;8.65;;
73557;SDS011;61829;53.286;10.434;2024-03-07T13:57:58;18.30;;;9.23;;
73557;SDS011;61829;53.286;10.434;2024-03-07T14:00:49;18.50;;;9.38;;
73557;SDS011;61829;53.286;10.434;2024-03-07T14:16:02;13.75;;;6.65;;
73557;SDS011;61829;53.286;10.434;2024-03-07T14:22:40;16.20;;;8.05;;
73557;SDS011;61829;53.286;10.434;2024-03-07T14:25:51;16.45;;;7.50;;
73557;SDS011;61829;53.286;10.434;2024-03-07T14:32:00;16.77;;;8.45;;
73557;SDS011;61829;53.286;10.434;2024-03-07T14:40:59;16.50;;;8.00;;
73557;SDS011;61829;53.286;10.434;2024-03-07T14:43:44;15.25;;;7.63;;
73557;SDS011;61829;53.286;10.434;2024-03-07T14:49:14;14.50;;;7.55;;
73557;SDS011;61829;53.286;10.434;2024-03-07T14:52:01;14.68;;;7.20;;
73557;SDS011;61829;53.286;10.434;2024-03-07T14:54:47;16.42;;;7.85;;
73557;SDS011;61829;53.286;10.434;2024-03-07T14:57:32;14.52;;;7.75;;
73557;SDS011;61829;53.286;10.434;2024-03-07T15:00:16;12.30;;;6.88;;
73557;SDS011;61829;53.286;10.434;2024-03-07T15:03:12;13.35;;;7.45;;
73557;SDS011;61829;53.286;10.434;2024-03-07T15:05:59;15.35;;;7.70;;
73557;SDS011;61829;53.286;10.434;2024-03-07T15:08:46;16.67;;;7.75;;
73557;SDS011;61829;53.286;10.434;2024-03-07T15:11:34;15.43;;;7.10;;
73557;SDS011;61829;53.286;10.434;2024-03-07T15:14:19;14.15;;;7.50;;
73557;SDS011;61829;53.286;10.434;2024-03-07T15:17:03;17.55;;;7.90;;
73557;SDS011;61829;53.286;10.434;2024-03-07T15:19:50;12.80;;;7.45;;
73557;SDS011;61829;53.286;10.434;2024-03-07T15:22:35;16.02;;;7.68;;
73557;SDS011;61829;53.286;10.434;2024-03-07T15:25:19;12.38;;;6.03;;
73557;SDS011;61829;53.286;10.434;2024-03-07T15:28:06;11.85;;;6.00;;
73557;SDS011;61829;53.286;10.434;2024-03-07T15:30:52;13.57;;;6.90;;
73557;SDS011;61829;53.286;10.434;2024-03-07T15:33:36;15.52;;;7.90;;
73557;SDS011;61829;53.286;10.434;2024-03-07T15:36:21;14.43;;;6.97;;
73557;SDS011;61829;53.286;10.434;2024-03-07T15:39:06;13.70;;;6.70;;
73557;SDS011;61829;53.286;10.434;2024-03-07T15:44:49;14.55;;;6.63;;
73557;SDS011;61829;53.286;10.434;2024-03-07T15:47:33;14.07;;;7.43;;
73557;SDS011;61829;53.286;10.434;2024-03-07T15:50:18;16.25;;;7.30;;
73557;SDS011;61829;53.286;10.434;2024-03-07T15:53:04;13.68;;;6.63;;
73557;SDS011;61829;53.286;10.434;2024-03-07T15:55:50;16.65;;;7.07;;
73557;SDS011;61829;53.286;10.434;2024-03-07T15:58:35;16.33;;;7.25;;
73557;SDS011;61829;53.286;10.434;2024-03-07T16:01:20;15.65;;;7.57;;
73557;SDS011;61829;53.286;10.434;2024-03-07T16:04:05;10.68;;;5.88;;
73557;SDS011;61829;53.286;10.434;2024-03-07T16:06:51;13.52;;;6.65;;
73557;SDS011;61829;53.286;10.434;2024-03-07T16:09:35;15.15;;;7.25;;
73557;SDS011;61829;53.286;10.434;2024-03-07T16:12:20;14.80;;;7.85;;
73557;SDS011;61829;53.286;10.434;2024-03-07T16:15:04;16.60;;;7.00;;
73557;SDS011;61829;53.286;10.434;2024-03-07T16:17:49;15.43;;;7.90;;
73557;SDS011;61829;53.286;10.434;2024-03-07T16:20:34;16.77;;;7.95;;
73557;SDS011;61829;53.286;10.434;2024-03-07T16:23:19;16.40;;;8.20;;
73557;SDS011;61829;53.286;10.434;2024-03-07T16:26:03;16.23;;;7.72;;
73557;SDS011;61829;53.286;10.434;2024-03-07T16:28:48;13.52;;;8.07;;
73557;SDS011;61829;53.286;10.434;2024-03-07T16:31:48;16.60;;;8.43;;
73557;SDS011;61829;53.286;10.434;2024-03-07T16:34:35;16.95;;;8.07;;
73557;SDS011;61829;53.286;10.434;2024-03-07T16:37:21;16.27;;;7.70;;
73557;SDS011;61829;53.286;10.434;2024-03-07T16:40:06;20.38;;;8.93;;
73557;SDS011;61829;53.286;10.434;2024-03-07T16:42:56;17.77;;;8.45;;
73557;SDS011;61829;53.286;10.434;2024-03-07T16:45:42;18.23;;;7.97;;
73557;SDS011;61829;53.286;10.434;2024-03-07T16:48:27;18.38;;;8.13;;
73557;SDS011;61829;53.286;10.434;2024-03-07T16:53:57;18.88;;;8.60;;
73557;SDS011;61829;53.286;10.434;2024-03-07T16:56:42;16.88;;;8.45;;
73557;SDS011;61829;53.286;10.434;2024-03-07T16:59:27;21.80;;;9.65;;
73557;SDS011;61829;53.286;10.434;2024-03-07T17:02:13;18.88;;;9.45;;
73557;SDS011;61829;53.286;10.434;2024-03-07T17:04:58;20.70;;;10.07;;
73557;SDS011;61829;53.286;10.434;2024-03-07T17:07:42;21.95;;;9.18;;
73557;SDS011;61829;53.286;10.434;2024-03-07T17:10:28;20.48;;;9.45;;
73557;SDS011;61829;53.286;10.434;2024-03-07T17:13:16;19.75;;;10.63;;
73557;SDS011;61829;53.286;10.434;2024-03-07T17:16:00;21.02;;;9.90;;